Time;durP1;ratioP1;P1;durP2;ratioP2;P2;SDS_P1;SDS_P2;PMS_P1;PMS_P2;Temp;Humidity;BMP_temperature;BMP_pressure;BME280_temperature;BME280_humidity;BME280_pressure;Samples;Min_cycle;Max_cycle;Signal;HPM_P1;HPM_P2
2024/03/17 00:02:08;;;;;;;4.00;2.70;;;;;;;;;;5055319;28;20343;-78
2024/03/17 00:04:34;;;;;;;7.90;2.63;;;;;;;;;;5055370;28;20060;-79
2024/03/17 00:07:00;;;;;;;7.13;3.23;;;;;;;;;;5073671;28;20485;-78
2024/03/17 00:09:27;;;;;;;6.17;3.00;;;;;;;;;;5072943;28;20429;-78
2024/03/17 00:11:53;;;;;;;7.17;3.43;;;;;;;;;;5073337;28;20032;-79
2024/03/17 00:14:18;;;;;;;7.43;3.20;;;;;;;;;;5055531;28;20043;-78
2024/03/17 00:16:44;;;;;;;8.67;3.50;;;;;;;;;;5073122;28;20028;-79
2024/03/17 00:19:10;;;;;;;10.63;4.17;;;;;;;;;;5073798;28;20024;-79
2024/03/17 00:21:35;;;;;;;6.33;3.60;;;;;;;;;;5073658;28;20437;-79
2024/03/17 00:24:02;;;;;;;8.67;3.50;;;;;;;;;;5073422;28;20557;-79
2024/03/17 00:26:29;;;;;;;6.90;3.63;;;;;;;;;;5055289;28;20024;-80
2024/03/17 00:28:54;;;;;;;10.80;3.93;;;;;;;;;;5072470;28;20032;-78
2024/03/17 00:31:20;;;;;;;9.17;3.87;;;;;;;;;;5073285;28;20031;-78
2024/03/17 00:33:46;;;;;;;11.37;6.07;;;;;;;;;;5073694;28;20060;-79
2024/03/17 00:36:12;;;;;;;9.50;3.77;;;;;;;;;;5073473;28;20455;-79
2024/03/17 00:38:37;;;;;;;6.77;3.37;;;;;;;;;;5073888;28;20032;-78
2024/03/17 00:41:04;;;;;;;9.60;3.80;;;;;;;;;;5073865;28;20102;-77
2024/03/17 00:43:29;;;;;;;12.43;3.70;;;;;;;;;;5055542;28;20028;-81
2024/03/17 00:45:56;;;;;;;7.87;3.07;;;;;;;;;;5055309;28;20032;-78
2024/03/17 00:48:21;;;;;;;6.80;3.33;;;;;;;;;;5055539;28;20024;-78
2024/03/17 00:50:55;;;;;;;7.67;3.50;;;;;;;;;;5072817;28;20435;-76
2024/03/17 00:53:21;;;;;;;7.50;3.23;;;;;;;;;;5054780;28;20028;-78
2024/03/17 00:56:00;;;;;;;9.03;3.57;;;;;;;;;;5072009;28;20051;-77
2024/03/17 00:58:26;;;;;;;8.23;4.23;;;;;;;;;;5056623;28;20029;-77
2024/03/17 01:00:52;;;;;;;6.17;3.73;;;;;;;;;;5058539;28;20373;-78
2024/03/17 01:03:17;;;;;;;9.27;3.80;;;;;;;;;;5058822;28;20028;-78
2024/03/17 01:05:44;;;;;;;10.43;4.17;;;;;;;;;;5076161;28;20036;-78
2024/03/17 01:08:11;;;;;;;5.67;3.47;;;;;;;;;;5076392;28;20485;-78
2024/03/17 01:10:44;;;;;;;5.90;3.60;;;;;;;;;;5058389;28;20036;-77
2024/03/17 01:13:10;;;;;;;6.83;3.77;;;;;;;;;;5076207;28;20113;-77
2024/03/17 01:15:39;;;;;;;8.37;3.83;;;;;;;;;;5057961;28;20028;-77
2024/03/17 01:18:06;;;;;;;4.80;3.03;;;;;;;;;;5075829;28;20068;-77
2024/03/17 01:20:34;;;;;;;6.60;3.80;;;;;;;;;;5076054;28;20485;-77
2024/03/17 01:22:59;;;;;;;10.30;3.97;;;;;;;;;;5057865;28;20055;-79
2024/03/17 01:25:26;;;;;;;7.77;3.97;;;;;;;;;;5058690;28;20500;-78
2024/03/17 01:27:52;;;;;;;5.87;3.37;;;;;;;;;;5058451;28;20074;-77
2024/03/17 01:30:19;;;;;;;6.90;3.17;;;;;;;;;;5058333;28;20047;-77
2024/03/17 01:32:45;;;;;;;9.17;3.17;;;;;;;;;;5058702;28;20077;-77
2024/03/17 01:35:11;;;;;;;8.37;3.63;;;;;;;;;;5076736;28;20032;-77
2024/03/17 01:37:37;;;;;;;8.83;3.70;;;;;;;;;;5058304;28;20036;-79
2024/03/17 01:40:10;;;;;;;8.73;3.53;;;;;;;;;;5075741;28;20036;-77
2024/03/17 01:42:40;;;;;;;7.97;3.63;;;;;;;;;;5057830;28;20028;-78
2024/03/17 01:45:27;;;;;;;10.53;3.90;;;;;;;;;;5075907;28;20113;-78
2024/03/17 01:47:54;;;;;;;7.57;3.37;;;;;;;;;;5076017;28;20408;-78
2024/03/17 01:50:24;;;;;;;9.33;4.30;;;;;;;;;;5075714;28;20032;-78
2024/03/17 01:52:59;;;;;;;10.17;4.10;;;;;;;;;;5058124;28;20052;-77
2024/03/17 01:55:26;;;;;;;6.50;3.67;;;;;;;;;;5058058;28;20037;-78
2024/03/17 01:57:53;;;;;;;6.50;3.87;;;;;;;;;;5058075;28;20590;-77
2024/03/17 02:00:19;;;;;;;7.53;3.33;;;;;;;;;;5057995;28;20366;-78
2024/03/17 02:02:45;;;;;;;6.30;3.47;;;;;;;;;;5075813;28;20035;-79
2024/03/17 02:05:10;;;;;;;12.57;3.37;;;;;;;;;;5057528;28;20028;-79
2024/03/17 02:07:37;;;;;;;9.27;3.37;;;;;;;;;;5075857;28;20044;-77
2024/03/17 02:10:05;;;;;;;6.57;3.47;;;;;;;;;;5057251;28;20020;-77
2024/03/17 02:12:31;;;;;;;6.43;3.37;;;;;;;;;;5075407;28;20029;-77
2024/03/17 02:15:00;;;;;;;5.00;3.40;;;;;;;;;;5057414;28;20016;-78
2024/03/17 02:17:28;;;;;;;8.33;3.50;;;;;;;;;;5057630;28;20192;-78
2024/03/17 02:19:54;;;;;;;5.13;2.87;;;;;;;;;;5057462;28;20101;-77
2024/03/17 02:22:19;;;;;;;7.37;3.40;;;;;;;;;;5057109;28;20062;-77
2024/03/17 02:24:45;;;;;;;6.67;3.23;;;;;;;;;;5057050;28;20107;-79
2024/03/17 02:27:11;;;;;;;12.63;3.60;;;;;;;;;;5057721;28;20027;-78
2024/03/17 02:29:37;;;;;;;14.23;3.90;;;;;;;;;;5040370;28;20033;-77
2024/03/17 02:32:06;;;;;;;8.33;3.47;;;;;;;;;;5075819;28;20473;-77
2024/03/17 02:34:38;;;;;;;6.53;3.57;;;;;;;;;;5057554;28;20043;-79
2024/03/17 02:37:05;;;;;;;9.52;3.58;;;;;;;;;;5057903;28;20021;-79
2024/03/17 02:39:34;;;;;;;6.57;3.70;;;;;;;;;;5057185;28;20043;-78
2024/03/17 02:42:05;;;;;;;9.00;3.30;;;;;;;;;;5056709;28;20029;-78
2024/03/17 02:44:31;;;;;;;12.33;4.20;;;;;;;;;;5057182;28;20055;-77
2024/03/17 02:46:58;;;;;;;8.93;4.30;;;;;;;;;;5075192;28;20438;-78
2024/03/17 02:49:24;;;;;;;11.07;3.90;;;;;;;;;;5057379;28;20086;-78
2024/03/17 02:51:51;;;;;;;8.17;3.87;;;;;;;;;;5040636;28;20024;-77
2024/03/17 02:54:16;;;;;;;9.40;3.60;;;;;;;;;;5074920;28;20028;-75
2024/03/17 02:56:42;;;;;;;6.80;3.30;;;;;;;;;;5057224;28;20043;-78
2024/03/17 02:59:08;;;;;;;11.60;3.83;;;;;;;;;;5056916;28;20106;-78
2024/03/17 03:01:34;;;;;;;8.30;3.67;;;;;;;;;;5056732;28;20020;-79
2024/03/17 03:04:00;;;;;;;9.07;3.30;;;;;;;;;;5056272;28;20048;-79
2024/03/17 03:06:25;;;;;;;12.37;4.70;;;;;;;;;;5056502;28;20028;-79
2024/03/17 03:08:51;;;;;;;6.07;3.77;;;;;;;;;;5057336;28;20024;-77
2024/03/17 03:11:17;;;;;;;7.20;3.53;;;;;;;;;;5056302;28;20031;-78
2024/03/17 03:13:43;;;;;;;6.70;3.37;;;;;;;;;;5074543;28;20480;-78
2024/03/17 03:16:11;;;;;;;9.57;3.57;;;;;;;;;;5055776;28;20020;-77
2024/03/17 03:18:39;;;;;;;10.67;3.67;;;;;;;;;;5056493;28;20054;-78
2024/03/17 03:21:05;;;;;;;7.43;3.23;;;;;;;;;;5056076;28;20119;-78
2024/03/17 03:23:31;;;;;;;4.70;3.03;;;;;;;;;;5073403;28;20016;-78
2024/03/17 03:26:04;;;;;;;8.37;3.07;;;;;;;;;;5073262;28;20016;-78
2024/03/17 03:28:31;;;;;;;5.37;3.20;;;;;;;;;;5056076;28;20368;-78
2024/03/17 03:30:57;;;;;;;7.13;3.00;;;;;;;;;;5055511;28;20173;-79
2024/03/17 03:33:23;;;;;;;11.00;3.83;;;;;;;;;;5073715;28;20029;-78
2024/03/17 03:35:50;;;;;;;4.40;2.87;;;;;;;;;;5073364;28;20029;-78
2024/03/17 03:38:16;;;;;;;9.87;3.17;;;;;;;;;;5073305;28;20070;-78
2024/03/17 03:40:42;;;;;;;5.30;3.47;;;;;;;;;;5073824;28;20024;-78
2024/03/17 03:43:12;;;;;;;8.20;3.03;;;;;;;;;;5055626;28;20472;-79
2024/03/17 03:45:38;;;;;;;5.57;3.53;;;;;;;;;;5055947;28;20280;-78
2024/03/17 03:48:04;;;;;;;7.70;3.70;;;;;;;;;;5073484;28;20036;-77
2024/03/17 03:50:31;;;;;;;7.23;3.50;;;;;;;;;;5073454;28;20100;-78
2024/03/17 03:52:56;;;;;;;5.63;3.43;;;;;;;;;;5054699;28;20494;-77
2024/03/17 03:55:23;;;;;;;9.00;3.77;;;;;;;;;;5055101;28;20024;-77
2024/03/17 03:57:52;;;;;;;9.30;3.43;;;;;;;;;;5055849;28;20116;-78
2024/03/17 04:00:23;;;;;;;7.40;3.60;;;;;;;;;;5055802;28;20098;-78
2024/03/17 04:02:51;;;;;;;7.15;3.80;;;;;;;;;;5056200;28;20361;-76
2024/03/17 04:05:19;;;;;;;6.47;3.23;;;;;;;;;;5055887;28;20032;-77
2024/03/17 04:07:46;;;;;;;5.90;3.27;;;;;;;;;;5073484;28;20032;-76
2024/03/17 04:10:13;;;;;;;10.93;3.53;;;;;;;;;;5073465;28;20020;-78
2024/03/17 04:12:39;;;;;;;13.60;3.90;;;;;;;;;;5055866;28;20034;-78
2024/03/17 04:15:06;;;;;;;8.83;3.90;;;;;;;;;;5073775;28;20152;-78
2024/03/17 04:17:33;;;;;;;5.70;3.27;;;;;;;;;;5073536;28;20020;-76
2024/03/17 04:19:59;;;;;;;9.33;3.37;;;;;;;;;;5055381;28;20032;-77
2024/03/17 04:22:25;;;;;;;8.43;3.37;;;;;;;;;;5073241;28;20079;-76
2024/03/17 04:24:56;;;;;;;8.37;3.37;;;;;;;;;;5072654;28;20079;-77
2024/03/17 04:27:24;;;;;;;7.20;3.60;;;;;;;;;;5072455;28;20040;-78
2024/03/17 04:29:52;;;;;;;8.00;3.60;;;;;;;;;;5073727;28;20032;-79
2024/03/17 04:32:18;;;;;;;8.07;3.43;;;;;;;;;;5073138;28;20024;-78
2024/03/17 04:34:43;;;;;;;8.53;3.00;;;;;;;;;;5055097;28;20027;-77
2024/03/17 04:37:12;;;;;;;6.33;3.17;;;;;;;;;;5073552;28;20029;-78
2024/03/17 04:39:42;;;;;;;5.00;3.00;;;;;;;;;;5055608;28;20056;-78
2024/03/17 04:42:09;;;;;;;8.10;3.93;;;;;;;;;;5054802;28;20108;-78
2024/03/17 04:44:35;;;;;;;9.17;3.47;;;;;;;;;;5056291;28;20119;-77
2024/03/17 04:47:02;;;;;;;8.67;3.53;;;;;;;;;;5072792;28;20032;-79
2024/03/17 04:49:27;;;;;;;7.10;4.03;;;;;;;;;;5054678;28;20036;-79
2024/03/17 04:51:53;;;;;;;6.60;3.63;;;;;;;;;;5073711;28;20039;-78
2024/03/17 04:54:18;;;;;;;9.00;3.57;;;;;;;;;;5073448;28;20488;-77
2024/03/17 04:56:44;;;;;;;8.63;3.90;;;;;;;;;;5055058;28;20116;-78
2024/03/17 04:59:09;;;;;;;7.50;3.73;;;;;;;;;;5055053;28;20036;-79
2024/03/17 05:01:36;;;;;;;6.67;3.47;;;;;;;;;;5038401;28;20029;-78
2024/03/17 05:04:05;;;;;;;12.07;3.90;;;;;;;;;;5055052;28;20032;-76
2024/03/17 05:06:30;;;;;;;7.97;3.77;;;;;;;;;;5054835;28;20472;-77
2024/03/17 05:08:56;;;;;;;4.90;3.07;;;;;;;;;;5055037;28;20075;-77
2024/03/17 05:11:23;;;;;;;12.30;3.53;;;;;;;;;;5073146;28;20031;-78
2024/03/17 05:13:49;;;;;;;9.40;3.87;;;;;;;;;;5054711;28;20159;-78
2024/03/17 05:16:15;;;;;;;8.13;3.70;;;;;;;;;;5055093;28;20064;-76
2024/03/17 05:18:41;;;;;;;9.77;4.73;;;;;;;;;;5054384;28;20028;-78
2024/03/17 05:21:07;;;;;;;11.43;4.07;;;;;;;;;;5055639;28;20159;-77
2024/03/17 05:23:37;;;;;;;7.10;4.13;;;;;;;;;;5055920;28;20494;-78
2024/03/17 05:26:06;;;;;;;6.30;3.33;;;;;;;;;;5055460;28;20040;-77
2024/03/17 05:28:33;;;;;;;8.60;4.00;;;;;;;;;;5072934;28;20169;-79
2024/03/17 05:30:58;;;;;;;8.43;3.70;;;;;;;;;;5038822;28;20029;-78
2024/03/17 05:33:26;;;;;;;5.63;3.20;;;;;;;;;;5054921;28;20032;-77
2024/03/17 05:35:53;;;;;;;8.60;3.70;;;;;;;;;;5054134;28;20123;-77
2024/03/17 05:38:24;;;;;;;4.20;3.17;;;;;;;;;;5073062;28;20024;-77
2024/03/17 05:41:16;;;;;;;6.93;3.70;;;;;;;;;;5054838;28;20025;-78
2024/03/17 05:43:42;;;;;;;7.18;3.65;;;;;;;;;;5069640;28;20051;-78
2024/03/17 05:46:09;;;;;;;5.67;3.40;;;;;;;;;;5057446;28;20038;-78
2024/03/17 05:48:39;;;;;;;7.83;3.83;;;;;;;;;;5059061;28;20035;-79
2024/03/17 05:51:08;;;;;;;10.13;3.80;;;;;;;;;;5076782;28;20025;-79
2024/03/17 05:53:34;;;;;;;8.33;3.73;;;;;;;;;;5076894;28;20047;-75
2024/03/17 05:56:00;;;;;;;6.30;3.40;;;;;;;;;;5041632;28;20496;-79
2024/03/17 05:58:26;;;;;;;8.70;4.17;;;;;;;;;;5058165;28;20028;-77
2024/03/17 06:00:51;;;;;;;8.93;3.47;;;;;;;;;;5058416;28;20024;-78
2024/03/17 06:03:17;;;;;;;6.00;3.57;;;;;;;;;;5075885;28;20031;-78
2024/03/17 06:05:45;;;;;;;9.33;3.27;;;;;;;;;;5075496;28;20432;-78
2024/03/17 06:08:11;;;;;;;6.17;3.50;;;;;;;;;;5057056;28;20059;-77
2024/03/17 06:10:42;;;;;;;7.63;3.77;;;;;;;;;;5076123;28;20048;-77
2024/03/17 06:13:11;;;;;;;11.87;3.83;;;;;;;;;;5041389;28;20377;-77
2024/03/17 06:15:37;;;;;;;7.57;3.10;;;;;;;;;;5075458;28;20025;-79
2024/03/17 06:18:03;;;;;;;5.80;3.37;;;;;;;;;;5057699;28;20028;-76
2024/03/17 06:20:29;;;;;;;5.63;3.13;;;;;;;;;;5057558;28;20036;-78
2024/03/17 06:22:55;;;;;;;7.87;3.43;;;;;;;;;;5057545;28;20373;-79
2024/03/17 06:25:23;;;;;;;4.73;2.70;;;;;;;;;;5057217;28;20024;-77
2024/03/17 06:27:53;;;;;;;5.23;3.30;;;;;;;;;;5074889;28;20028;-78
2024/03/17 06:30:19;;;;;;;7.70;3.63;;;;;;;;;;5057575;28;20035;-76
2024/03/17 06:32:46;;;;;;;4.70;2.93;;;;;;;;;;5075403;28;20050;-78
2024/03/17 06:35:15;;;;;;;7.17;3.70;;;;;;;;;;5075332;28;20043;-79
2024/03/17 06:37:48;;;;;;;8.87;4.13;;;;;;;;;;5075618;28;20031;-78
2024/03/17 06:40:14;;;;;;;9.00;3.40;;;;;;;;;;5075265;28;20046;-78
2024/03/17 06:42:41;;;;;;;6.00;3.20;;;;;;;;;;5040567;28;20039;-77
2024/03/17 06:45:10;;;;;;;5.27;3.03;;;;;;;;;;5057428;28;20020;-78
2024/03/17 06:47:37;;;;;;;5.13;3.43;;;;;;;;;;5058153;28;20383;-79
2024/03/17 06:50:09;;;;;;;6.20;3.43;;;;;;;;;;5058152;28;20029;-78
2024/03/17 06:52:35;;;;;;;12.00;3.10;;;;;;;;;;5058136;28;20032;-79
2024/03/17 06:55:01;;;;;;;8.17;3.63;;;;;;;;;;5075053;28;20028;-76
2024/03/17 06:57:27;;;;;;;4.83;2.73;;;;;;;;;;5074906;28;20035;-77
2024/03/17 06:59:52;;;;;;;6.17;2.80;;;;;;;;;;5056718;28;20032;-77
2024/03/17 07:02:19;;;;;;;8.30;3.07;;;;;;;;;;5057060;28;20480;-78
2024/03/17 07:04:46;;;;;;;7.80;3.17;;;;;;;;;;5056946;28;20124;-78
2024/03/17 07:07:12;;;;;;;9.33;4.00;;;;;;;;;;5056952;28;20020;-77
2024/03/17 07:09:39;;;;;;;10.63;3.43;;;;;;;;;;5074771;28;20511;-79
2024/03/17 07:12:06;;;;;;;4.50;2.93;;;;;;;;;;5074919;28;20020;-79
2024/03/17 07:14:32;;;;;;;5.53;3.53;;;;;;;;;;5074670;28;20027;-77
2024/03/17 07:16:57;;;;;;;8.63;3.50;;;;;;;;;;5056785;28;20196;-77
2024/03/17 07:19:23;;;;;;;3.50;2.50;;;;;;;;;;5057192;28;20036;-77
2024/03/17 07:21:49;;;;;;;7.00;3.13;;;;;;;;;;5074948;28;20044;-76
2024/03/17 07:24:15;;;;;;;6.40;3.00;;;;;;;;;;5074215;28;20054;-77
2024/03/17 07:26:41;;;;;;;7.17;3.10;;;;;;;;;;5057012;28;20028;-78
2024/03/17 07:29:08;;;;;;;5.23;3.40;;;;;;;;;;5074810;28;20024;-79
2024/03/17 07:31:34;;;;;;;5.57;3.40;;;;;;;;;;5074915;28;20035;-77
2024/03/17 07:33:59;;;;;;;6.43;3.10;;;;;;;;;;5040253;28;20404;-78
2024/03/17 07:36:25;;;;;;;10.70;3.20;;;;;;;;;;5056722;28;20028;-79
2024/03/17 07:38:50;;;;;;;6.00;2.73;;;;;;;;;;5075717;28;20020;-77
2024/03/17 07:41:16;;;;;;;4.77;2.60;;;;;;;;;;5056157;28;20027;-78
2024/03/17 07:43:42;;;;;;;6.20;2.40;;;;;;;;;;5056834;28;20054;-78
2024/03/17 07:46:12;;;;;;;6.47;2.70;;;;;;;;;;5056271;28;20028;-77
2024/03/17 07:48:39;;;;;;;7.37;2.57;;;;;;;;;;5074304;28;20024;-78
2024/03/17 07:51:08;;;;;;;3.40;2.60;;;;;;;;;;5073731;28;20023;-78
2024/03/17 07:53:37;;;;;;;4.33;2.80;;;;;;;;;;5056305;28;20058;-79
2024/03/17 07:56:05;;;;;;;6.37;3.90;;;;;;;;;;5055470;28;20435;-79
2024/03/17 07:58:35;;;;;;;13.23;5.53;;;;;;;;;;5073792;28;20477;-77
2024/03/17 08:01:05;;;;;;;8.03;3.60;;;;;;;;;;5039300;28;20494;-77
2024/03/17 08:03:32;;;;;;;10.50;2.90;;;;;;;;;;5055794;28;20032;-78
2024/03/17 08:05:58;;;;;;;4.72;3.05;;;;;;;;;;5055708;28;20031;-78
2024/03/17 08:08:24;;;;;;;7.90;3.25;;;;;;;;;;5072092;28;20040;-77
2024/03/17 08:10:50;;;;;;;7.43;3.78;;;;;;;;;;5073753;28;20027;-78
2024/03/17 08:13:20;;;;;;;9.95;2.85;;;;;;;;;;5055079;28;20016;-78
2024/03/17 08:15:54;;;;;;;6.28;3.33;;;;;;;;;;5055051;28;20469;-80
2024/03/17 08:18:20;;;;;;;4.63;3.50;;;;;;;;;;5073557;28;20100;-78
2024/03/17 08:20:49;;;;;;;8.95;4.05;;;;;;;;;;5073473;28;20021;-78
2024/03/17 08:23:15;;;;;;;7.97;3.25;;;;;;;;;;5054900;28;20570;-80
2024/03/17 08:25:40;;;;;;;6.95;3.72;;;;;;;;;;5073596;28;20137;-80
2024/03/17 08:28:09;;;;;;;8.65;4.05;;;;;;;;;;5054845;28;20384;-79
2024/03/17 08:30:35;;;;;;;9.20;3.85;;;;;;;;;;5074319;28;20329;-77
2024/03/17 08:33:02;;;;;;;9.95;4.10;;;;;;;;;;5074335;28;20035;-79
2024/03/17 08:35:27;;;;;;;7.30;4.43;;;;;;;;;;5056640;28;20085;-80
2024/03/17 08:37:56;;;;;;;9.38;3.67;;;;;;;;;;5075677;28;20032;-77
2024/03/17 08:40:22;;;;;;;6.70;3.88;;;;;;;;;;5075334;28;20094;-78
2024/03/17 08:42:48;;;;;;;9.30;4.38;;;;;;;;;;5054941;28;20067;-78
2024/03/17 08:45:14;;;;;;;6.53;3.83;;;;;;;;;;5054277;28;20025;-78
2024/03/17 08:47:39;;;;;;;6.03;2.90;;;;;;;;;;5054972;28;20376;-79
2024/03/17 08:50:08;;;;;;;6.25;2.95;;;;;;;;;;5038808;28;20044;-79
2024/03/17 08:52:35;;;;;;;14.95;4.35;;;;;;;;;;5073882;28;20020;-78
2024/03/17 08:55:09;;;;;;;15.18;3.78;;;;;;;;;;5073387;28;20024;-78
2024/03/17 08:57:35;;;;;;;7.30;3.10;;;;;;;;;;5073574;28;20491;-79
2024/03/17 09:00:00;;;;;;;9.55;3.58;;;;;;;;;;5073605;28;20029;-79
2024/03/17 09:02:30;;;;;;;8.98;3.28;;;;;;;;;;5055741;28;20031;-81
2024/03/17 09:04:55;;;;;;;10.20;3.00;;;;;;;;;;5055245;28;20503;-78
2024/03/17 09:07:21;;;;;;;5.15;2.95;;;;;;;;;;5072642;28;20033;-78
2024/03/17 09:09:48;;;;;;;9.25;3.33;;;;;;;;;;5073505;28;20028;-79
2024/03/17 09:12:13;;;;;;;9.52;3.50;;;;;;;;;;5038679;28;20055;-78
2024/03/17 09:14:40;;;;;;;11.55;3.40;;;;;;;;;;5073475;28;20028;-78
2024/03/17 09:17:07;;;;;;;7.20;3.60;;;;;;;;;;5055471;28;20051;-78
2024/03/17 09:19:33;;;;;;;10.05;4.20;;;;;;;;;;5039767;28;20020;-79
2024/03/17 09:21:59;;;;;;;14.13;4.35;;;;;;;;;;5077326;28;20028;-79
2024/03/17 09:24:24;;;;;;;9.70;3.85;;;;;;;;;;5059245;28;20028;-80
2024/03/17 09:26:50;;;;;;;8.60;4.53;;;;;;;;;;5058641;28;20029;-78
2024/03/17 09:29:15;;;;;;;6.45;3.97;;;;;;;;;;5077057;28;20102;-80
2024/03/17 09:31:41;;;;;;;10.13;4.20;;;;;;;;;;5077042;28;20089;-79
2024/03/17 09:34:11;;;;;;;9.55;4.47;;;;;;;;;;5075683;28;20520;-78
2024/03/17 09:36:36;;;;;;;7.78;4.00;;;;;;;;;;5077297;28;20032;-80
2024/03/17 09:39:04;;;;;;;8.80;3.70;;;;;;;;;;5077280;28;20468;-80
2024/03/17 09:41:30;;;;;;;10.45;3.95;;;;;;;;;;5058953;28;20455;-79
2024/03/17 09:43:57;;;;;;;9.38;3.53;;;;;;;;;;5076995;28;20025;-78
2024/03/17 09:46:28;;;;;;;7.15;3.60;;;;;;;;;;5077353;28;20054;-78
2024/03/17 09:48:55;;;;;;;8.95;3.75;;;;;;;;;;5042292;28;20060;-79
2024/03/17 09:51:22;;;;;;;5.32;3.20;;;;;;;;;;5077585;28;20513;-79
2024/03/17 09:53:48;;;;;;;4.45;2.90;;;;;;;;;;5076637;28;20028;-80
2024/03/17 09:56:18;;;;;;;5.03;2.80;;;;;;;;;;5058744;28;20028;-79
2024/03/17 09:58:49;;;;;;;5.65;2.88;;;;;;;;;;5076247;28;20032;-79
2024/03/17 10:01:16;;;;;;;10.18;3.13;;;;;;;;;;5058548;28;20028;-79
2024/03/17 10:03:45;;;;;;;4.97;3.40;;;;;;;;;;5076747;28;20032;-80
2024/03/17 10:06:13;;;;;;;5.53;3.08;;;;;;;;;;5058373;28;20520;-78
2024/03/17 10:08:46;;;;;;;6.50;2.85;;;;;;;;;;5058590;28;20492;-78
2024/03/17 10:11:15;;;;;;;4.32;2.10;;;;;;;;;;5059088;28;20544;-80
2024/03/17 10:13:41;;;;;;;5.07;2.42;;;;;;;;;;5075907;28;20043;-80
2024/03/17 10:16:21;;;;;;;9.40;2.60;;;;;;;;;;5058489;28;20034;-78
2024/03/17 10:18:48;;;;;;;4.43;2.78;;;;;;;;;;5041520;28;20091;-79
2024/03/17 10:21:42;;;;;;;6.57;2.60;;;;;;;;;;5076502;28;20420;-80
2024/03/17 10:24:19;;;;;;;7.70;3.17;;;;;;;;;;5055652;28;20185;-81
2024/03/17 10:26:47;;;;;;;4.30;3.00;;;;;;;;;;5058336;28;20496;-78
2024/03/17 10:29:19;;;;;;;6.93;3.13;;;;;;;;;;5076025;28;20025;-80
2024/03/17 10:31:48;;;;;;;6.15;3.40;;;;;;;;;;5057803;28;20053;-80
2024/03/17 10:34:18;;;;;;;7.45;3.72;;;;;;;;;;5057162;28;20116;-79
2024/03/17 10:36:47;;;;;;;3.30;2.88;;;;;;;;;;5075486;28;20033;-79
2024/03/17 10:39:40;;;;;;;9.75;3.42;;;;;;;;;;5057330;28;20028;-79
2024/03/17 10:42:07;;;;;;;3.67;2.53;;;;;;;;;;5055284;28;20036;-80
2024/03/17 10:44:35;;;;;;;3.42;2.50;;;;;;;;;;5076135;28;20020;-80
2024/03/17 10:47:02;;;;;;;3.13;2.55;;;;;;;;;;5075803;28;20016;-80
2024/03/17 10:49:32;;;;;;;4.68;2.90;;;;;;;;;;5058463;28;20031;-78
2024/03/17 10:52:04;;;;;;;3.58;2.28;;;;;;;;;;5076546;28;20108;-79
2024/03/17 10:54:30;;;;;;;3.85;2.47;;;;;;;;;;5057735;28;20027;-79
2024/03/17 10:57:02;;;;;;;7.55;3.00;;;;;;;;;;5075799;28;20032;-79
2024/03/17 10:59:39;;;;;;;5.43;2.75;;;;;;;;;;5075766;28;20029;-79
2024/03/17 11:02:23;;;;;;;4.75;2.75;;;;;;;;;;5075500;28;20111;-80
2024/03/17 11:04:51;;;;;;;6.93;3.10;;;;;;;;;;5075303;28;20020;-81
2024/03/17 11:07:19;;;;;;;4.90;2.53;;;;;;;;;;5076051;28;20031;-76
2024/03/17 11:09:47;;;;;;;4.97;2.50;;;;;;;;;;5057282;28;20025;-80
2024/03/17 11:12:45;;;;;;;6.30;3.70;;;;;;;;;;5075863;28;20457;-80
2024/03/17 11:15:21;;;;;;;5.45;3.75;;;;;;;;;;5057631;28;20092;-78
2024/03/17 11:17:47;;;;;;;7.82;3.38;;;;;;;;;;5075934;28;20024;-81
2024/03/17 11:20:25;;;;;;;6.57;2.72;;;;;;;;;;5057599;28;20032;-81
2024/03/17 11:22:58;;;;;;;5.88;3.25;;;;;;;;;;5057920;28;20033;-80
2024/03/17 11:25:27;;;;;;;9.73;3.47;;;;;;;;;;5041122;28;20032;-81
2024/03/17 11:28:18;;;;;;;10.88;3.65;;;;;;;;;;5057389;28;20421;-80
2024/03/17 11:30:57;;;;;;;5.63;3.63;;;;;;;;;;5072995;28;20047;-79
2024/03/17 11:33:38;;;;;;;8.30;2.97;;;;;;;;;;5057506;28;20024;-81
2024/03/17 11:36:28;;;;;;;4.28;2.92;;;;;;;;;;5057098;28;20024;-79
2024/03/17 11:39:06;;;;;;;3.67;2.85;;;;;;;;;;5057272;28;20050;-81
2024/03/17 11:41:41;;;;;;;6.65;2.97;;;;;;;;;;5056398;28;20464;-80
2024/03/17 11:46:56;;;;;;;4.65;2.97;;;;;;;;;;5075289;28;20030;-80
2024/03/17 11:49:30;;;;;;;6.07;2.50;;;;;;;;;;5075398;28;20021;-79
2024/03/17 11:52:03;;;;;;;3.35;2.63;;;;;;;;;;5075589;28;20386;-78
2024/03/17 11:54:30;;;;;;;5.32;2.65;;;;;;;;;;5057148;28;20507;-79
2024/03/17 11:57:02;;;;;;;2.95;2.08;;;;;;;;;;5075032;28;20040;-77
2024/03/17 11:59:30;;;;;;;4.90;2.33;;;;;;;;;;5075024;28;20024;-79
2024/03/17 12:01:56;;;;;;;4.63;2.95;;;;;;;;;;5056695;28;20025;-79
2024/03/17 12:04:24;;;;;;;5.15;2.70;;;;;;;;;;5075680;28;20480;-80
2024/03/17 12:06:58;;;;;;;3.00;2.60;;;;;;;;;;5056628;28;20457;-80
2024/03/17 12:09:29;;;;;;;3.63;2.60;;;;;;;;;;5074275;28;20147;-82
2024/03/17 12:12:05;;;;;;;5.88;2.55;;;;;;;;;;5056473;28;20120;-79
2024/03/17 12:14:31;;;;;;;6.22;2.58;;;;;;;;;;5074046;28;20070;-80
2024/03/17 12:17:01;;;;;;;4.63;2.20;;;;;;;;;;5074304;28;20057;-80
2024/03/17 12:19:27;;;;;;;7.00;2.83;;;;;;;;;;5074157;28;20029;-78
2024/03/17 12:21:57;;;;;;;3.47;2.60;;;;;;;;;;5074243;28;20108;-80
2024/03/17 12:24:26;;;;;;;8.32;3.28;;;;;;;;;;5056682;28;20027;-81
2024/03/17 12:26:56;;;;;;;4.05;2.33;;;;;;;;;;5056551;28;20085;-80
2024/03/17 12:29:32;;;;;;;5.57;2.85;;;;;;;;;;5074862;28;20060;-81
2024/03/17 12:32:03;;;;;;;5.75;3.35;;;;;;;;;;5074903;28;20017;-80
2024/03/17 12:34:30;;;;;;;6.93;3.20;;;;;;;;;;5057351;28;20602;-80
2024/03/17 12:36:57;;;;;;;6.10;2.80;;;;;;;;;;5072855;28;20434;-80
2024/03/17 12:39:28;;;;;;;6.20;3.15;;;;;;;;;;5056668;28;20357;-79
2024/03/17 12:42:16;;;;;;;5.47;2.30;;;;;;;;;;5073257;28;20024;-80
2024/03/17 12:44:55;;;;;;;4.78;2.85;;;;;;;;;;5073873;28;20063;-80
2024/03/17 12:47:22;;;;;;;5.68;2.55;;;;;;;;;;5074030;28;20035;-82
2024/03/17 12:49:52;;;;;;;4.15;2.53;;;;;;;;;;5074046;28;20082;-78
2024/03/17 12:52:26;;;;;;;4.45;2.75;;;;;;;;;;5074182;28;20016;-80
2024/03/17 13:00:35;;;;;;;4.30;2.25;;;;;;;;;;5081327;28;20043;-81
2024/03/17 13:03:07;;;;;;;5.25;2.58;;;;;;;;;;5080349;28;20427;-79
2024/03/17 13:05:36;;;;;;;6.00;2.38;;;;;;;;;;5062885;28;20050;-79
2024/03/17 13:08:02;;;;;;;3.65;2.17;;;;;;;;;;5081310;28;20161;-80
2024/03/17 13:10:32;;;;;;;2.45;1.80;;;;;;;;;;5080981;28;20020;-80
2024/03/17 13:13:08;;;;;;;4.60;2.13;;;;;;;;;;5047156;28;20052;-80
2024/03/17 13:15:37;;;;;;;3.95;2.00;;;;;;;;;;5063746;28;20103;-81
2024/03/17 13:18:04;;;;;;;3.80;1.90;;;;;;;;;;5048334;28;20032;-81
2024/03/17 13:20:31;;;;;;;3.90;1.92;;;;;;;;;;5064146;28;20078;-79
2024/03/17 13:23:01;;;;;;;4.60;2.00;;;;;;;;;;5081399;28;20036;-80
2024/03/17 13:25:36;;;;;;;3.92;2.75;;;;;;;;;;5080012;28;20017;-79
2024/03/17 13:28:04;;;;;;;5.50;2.35;;;;;;;;;;5061921;28;20032;-80
2024/03/17 13:30:30;;;;;;;5.57;2.42;;;;;;;;;;5079912;28;20381;-80
2024/03/17 13:33:00;;;;;;;3.50;2.95;;;;;;;;;;5062164;28;20404;-80
2024/03/17 13:35:27;;;;;;;4.68;2.17;;;;;;;;;;5080308;28;20024;-81
2024/03/17 13:37:56;;;;;;;2.92;2.20;;;;;;;;;;5062291;28;20404;-80
2024/03/17 13:40:23;;;;;;;3.03;1.98;;;;;;;;;;5080736;28;20029;-80
2024/03/17 13:42:50;;;;;;;4.53;2.20;;;;;;;;;;5061892;28;20031;-78
2024/03/17 13:45:18;;;;;;;4.00;2.17;;;;;;;;;;5045224;28;20396;-79
2024/03/17 13:47:50;;;;;;;4.13;2.30;;;;;;;;;;5080169;28;20020;-79
2024/03/17 13:50:16;;;;;;;4.15;2.00;;;;;;;;;;5080099;28;20025;-78
2024/03/17 13:52:44;;;;;;;3.95;2.00;;;;;;;;;;5080603;28;20252;-79
2024/03/17 13:55:18;;;;;;;7.10;2.70;;;;;;;;;;5078779;28;20498;-80
2024/03/17 13:57:49;;;;;;;5.15;2.20;;;;;;;;;;5079162;28;20344;-80
2024/03/17 14:00:19;;;;;;;;;;;;;;;;;;5080453;28;20063;-80
2024/03/17 14:02:46;;;;;;;3.50;2.13;;;;;;;;;;5061943;28;19919;-81
2024/03/17 14:05:18;;;;;;;14.00;6.68;;;;;;;;;;5077250;28;20032;-80
2024/03/17 14:07:44;;;;;;;6.22;4.40;;;;;;;;;;5058413;28;20119;-79
2024/03/17 14:10:12;;;;;;;5.13;2.95;;;;;;;;;;5059161;28;20056;-79
2024/03/17 14:12:41;;;;;;;4.20;2.33;;;;;;;;;;5059179;28;20126;-79
2024/03/17 14:15:12;;;;;;;3.50;2.78;;;;;;;;;;5077178;28;20052;-80
2024/03/17 14:17:39;;;;;;;4.20;2.70;;;;;;;;;;5043083;28;20054;-80
2024/03/17 14:20:13;;;;;;;3.30;2.30;;;;;;;;;;5076929;28;20043;-78
2024/03/17 14:22:43;;;;;;;3.03;2.03;;;;;;;;;;5060148;28;20365;-78
2024/03/17 14:25:11;;;;;;;4.20;2.60;;;;;;;;;;5058678;28;20036;-79
2024/03/17 14:27:37;;;;;;;10.15;2.50;;;;;;;;;;5075541;28;20024;-78
2024/03/17 14:30:07;;;;;;;4.22;2.45;;;;;;;;;;5058006;28;20111;-79
2024/03/17 14:32:33;;;;;;;6.07;2.80;;;;;;;;;;5058482;28;20050;-80
2024/03/17 14:34:59;;;;;;;4.32;2.60;;;;;;;;;;5057323;28;20559;-81
2024/03/17 14:37:25;;;;;;;5.55;2.38;;;;;;;;;;5075371;28;20028;-80
2024/03/17 14:39:54;;;;;;;4.38;2.35;;;;;;;;;;5056793;28;20563;-81
2024/03/17 14:42:20;;;;;;;2.90;2.35;;;;;;;;;;5074841;28;20119;-81
2024/03/17 14:44:47;;;;;;;7.90;2.67;;;;;;;;;;5056915;28;20025;-82
2024/03/17 14:47:13;;;;;;;5.97;2.53;;;;;;;;;;5075120;28;20021;-81
2024/03/17 14:49:38;;;;;;;3.85;2.58;;;;;;;;;;5074737;28;20032;-80
2024/03/17 14:52:05;;;;;;;3.55;2.30;;;;;;;;;;5074701;28;20039;-80
2024/03/17 14:54:31;;;;;;;3.95;2.50;;;;;;;;;;5074388;28;20093;-80
2024/03/17 14:56:57;;;;;;;4.22;3.10;;;;;;;;;;5040985;28;20524;-80